NKS9920 KDFW-KVCV
Flight info
| Callsign | NKS9920 |
|---|---|
| Flight time | 3h 13m |
| Altitude | 38000 |
| Route | KATZZ2 BRHMA CNX J74 PKE J104 TNP POMTE APLES |
| Aircraft | A320/M-SDE3FGHIRWY/LB1 |
Departure
| Time | 2026-05-04 16:59 |
|---|---|
| Airport | Dallas Fort Worth International Airport (KDFW) |
Arrival
| Time | 2026-05-04 20:12 |
|---|---|
| Airport | Southern California Logistics Airport (KVCV) |
| Time | Latitude | Longitude | Altitude | Speed | Heading |
|---|---|---|---|---|---|
| 2026-05-04 16:34 | 32.91099 | -97.03567 | 616 ft | 0 kts | 179° |
| 2026-05-04 16:51 | 32.91121 | -97.03568 | 629 ft | 4 kts | 173° |
| 2026-05-04 16:51 | 32.91147 | -97.03575 | 623 ft | 4 kts | 153° |
| 2026-05-04 16:51 | 32.91165 | -97.03603 | 626 ft | 0 kts | 90° |
| 2026-05-04 16:55 | 32.91164 | -97.03516 | 616 ft | 9 kts | 90° |
| 2026-05-04 16:55 | 32.91132 | -97.03322 | 618 ft | 16 kts | 84° |
| 2026-05-04 16:56 | 32.91334 | -97.03191 | 621 ft | 20 kts | 0° |
| 2026-05-04 16:56 | 32.91565 | -97.03101 | 616 ft | 0 kts | 94° |
| 2026-05-04 16:57 | 32.91563 | -97.03065 | 616 ft | 8 kts | 94° |
| 2026-05-04 16:58 | 32.90771 | -97.02994 | 620 ft | 119 kts | 180° |
| 2026-05-04 16:58 | 32.90136 | -97.02998 | 705 ft | 145 kts | 181° |
| 2026-05-04 16:59 | 32.88074 | -97.03086 | 1777 ft | 171 kts | 188° |
| 2026-05-04 17:00 | 32.81964 | -97.03903 | 4864 ft | 246 kts | 189° |
| 2026-05-04 17:00 | 32.76671 | -97.04620 | 8065 ft | 263 kts | 187° |
| 2026-05-04 17:01 | 32.72972 | -97.05384 | 10120 ft | 275 kts | 203° |
| 2026-05-04 17:01 | 32.70184 | -97.08606 | 11416 ft | 306 kts | 248° |
| 2026-05-04 17:02 | 32.69190 | -97.13891 | 12040 ft | 353 kts | 268° |
| 2026-05-04 17:02 | 32.69500 | -97.19940 | 13467 ft | 369 kts | 276° |
| 2026-05-04 17:03 | 32.69684 | -97.22991 | 14234 ft | 373 kts | 276° |
| 2026-05-04 17:03 | 32.69931 | -97.26081 | 15049 ft | 373 kts | 281° |
| 2026-05-04 17:03 | 32.70952 | -97.32179 | 16418 ft | 383 kts | 283° |
| 2026-05-04 17:04 | 32.72001 | -97.38482 | 17935 ft | 392 kts | 283° |
| 2026-05-04 17:04 | 32.73080 | -97.44918 | 19387 ft | 398 kts | 282° |
| 2026-05-04 17:05 | 32.74165 | -97.51404 | 20877 ft | 400 kts | 283° |
| 2026-05-04 17:05 | 32.75257 | -97.57930 | 22243 ft | 402 kts | 283° |
| 2026-05-04 17:06 | 32.76337 | -97.64397 | 23484 ft | 404 kts | 283° |
| 2026-05-04 17:06 | 32.76884 | -97.67692 | 24121 ft | 405 kts | 283° |
| 2026-05-04 17:07 | 32.77992 | -97.74305 | 25092 ft | 407 kts | 284° |
| 2026-05-04 17:07 | 32.78433 | -97.76519 | 25414 ft | 408 kts | 286° |
| 2026-05-04 17:07 | 32.79396 | -97.80717 | 26018 ft | 409 kts | 288° |
| 2026-05-04 17:07 | 32.80211 | -97.84005 | 26484 ft | 411 kts | 288° |
| 2026-05-04 17:08 | 32.81020 | -97.87231 | 26780 ft | 412 kts | 288° |
| 2026-05-04 17:08 | 32.82635 | -97.93838 | 27688 ft | 415 kts | 288° |
| 2026-05-04 17:08 | 32.83414 | -97.97143 | 28123 ft | 416 kts | 287° |
| 2026-05-04 17:09 | 32.84186 | -98.00469 | 28524 ft | 418 kts | 287° |
| 2026-05-04 17:09 | 32.84955 | -98.03807 | 28916 ft | 418 kts | 287° |
| 2026-05-04 17:09 | 32.85723 | -98.07147 | 29256 ft | 420 kts | 287° |
| 2026-05-04 17:10 | 32.87254 | -98.13822 | 30188 ft | 416 kts | 287° |
| 2026-05-04 17:10 | 32.89522 | -98.23688 | 31560 ft | 408 kts | 287° |
| 2026-05-04 17:11 | 32.90276 | -98.26940 | 32023 ft | 405 kts | 287° |
| 2026-05-04 17:11 | 32.91031 | -98.30188 | 32515 ft | 402 kts | 287° |
| 2026-05-04 17:11 | 32.92268 | -98.35522 | 33303 ft | 398 kts | 287° |
| 2026-05-04 17:12 | 32.92689 | -98.37214 | 33481 ft | 397 kts | 289° |
| 2026-05-04 17:12 | 32.94212 | -98.43512 | 34429 ft | 391 kts | 287° |
| 2026-05-04 17:13 | 32.96246 | -98.52841 | 35926 ft | 380 kts | 288° |
| 2026-05-04 17:14 | 32.98277 | -98.61811 | 37362 ft | 368 kts | 288° |
| 2026-05-04 17:14 | 32.98938 | -98.64713 | 37795 ft | 366 kts | 288° |
| 2026-05-04 17:14 | 33.00262 | -98.70537 | 37900 ft | 361 kts | 289° |
| 2026-05-04 17:15 | 33.00924 | -98.73438 | 37894 ft | 360 kts | 289° |
| 2026-05-04 17:16 | 33.03526 | -98.84945 | 37882 ft | 358 kts | 288° |
| 2026-05-04 17:17 | 33.06160 | -98.96365 | 37873 ft | 357 kts | 289° |
| 2026-05-04 17:18 | 33.08811 | -99.07848 | 37876 ft | 357 kts | 288° |
| 2026-05-04 17:19 | 33.11208 | -99.18296 | 37878 ft | 356 kts | 288° |
| 2026-05-04 17:20 | 33.13807 | -99.29695 | 37868 ft | 355 kts | 288° |
| 2026-05-04 17:20 | 33.15752 | -99.38261 | 37867 ft | 355 kts | 288° |
| 2026-05-04 17:21 | 33.18319 | -99.49612 | 37865 ft | 354 kts | 288° |
| 2026-05-04 17:22 | 33.19596 | -99.55284 | 37858 ft | 353 kts | 288° |
| 2026-05-04 17:23 | 33.22142 | -99.66599 | 37854 ft | 352 kts | 288° |
| 2026-05-04 17:24 | 33.24031 | -99.75070 | 37864 ft | 352 kts | 288° |
| 2026-05-04 17:25 | 33.26550 | -99.86347 | 37863 ft | 351 kts | 288° |
| 2026-05-04 17:26 | 33.29046 | -99.97614 | 37860 ft | 350 kts | 287° |
| 2026-05-04 17:27 | 33.32147 | -100.11662 | 37848 ft | 349 kts | 287° |
| 2026-05-04 17:28 | 33.34611 | -100.22889 | 37841 ft | 349 kts | 287° |
| 2026-05-04 17:29 | 33.38271 | -100.39657 | 37846 ft | 348 kts | 287° |
| 2026-05-04 17:31 | 33.41304 | -100.53638 | 37850 ft | 347 kts | 287° |
| 2026-05-04 17:32 | 33.44316 | -100.67601 | 37829 ft | 346 kts | 286° |
| 2026-05-04 17:33 | 33.46712 | -100.78766 | 37828 ft | 346 kts | 286° |
| 2026-05-04 17:34 | 33.49092 | -100.89941 | 37833 ft | 346 kts | 286° |
| 2026-05-04 17:35 | 33.52068 | -101.03942 | 37821 ft | 346 kts | 285° |
| 2026-05-04 17:36 | 33.53209 | -101.09501 | 37824 ft | 346 kts | 285° |
| 2026-05-04 17:36 | 33.54337 | -101.15107 | 37821 ft | 346 kts | 285° |
| 2026-05-04 17:37 | 33.55468 | -101.20748 | 37814 ft | 346 kts | 285° |
| 2026-05-04 17:37 | 33.56590 | -101.26324 | 37816 ft | 346 kts | 285° |
| 2026-05-04 17:38 | 33.57714 | -101.31936 | 37693 ft | 345 kts | 283° |
| 2026-05-04 17:38 | 33.58274 | -101.34735 | 37794 ft | 346 kts | 284° |
| 2026-05-04 17:38 | 33.58836 | -101.37538 | 37804 ft | 346 kts | 284° |
| 2026-05-04 17:39 | 33.60519 | -101.45961 | 37846 ft | 346 kts | 283° |
| 2026-05-04 17:39 | 33.61637 | -101.51567 | 37877 ft | 345 kts | 283° |
| 2026-05-04 17:40 | 33.62755 | -101.57172 | 37900 ft | 345 kts | 283° |
| 2026-05-04 17:40 | 33.63865 | -101.62779 | 37926 ft | 345 kts | 283° |
| 2026-05-04 17:41 | 33.64971 | -101.68385 | 37952 ft | 345 kts | 283° |
| 2026-05-04 17:41 | 33.66076 | -101.73998 | 37963 ft | 345 kts | 283° |
| 2026-05-04 17:42 | 33.67181 | -101.79610 | 37963 ft | 345 kts | 283° |
| 2026-05-04 17:42 | 33.68290 | -101.85229 | 37962 ft | 346 kts | 283° |
| 2026-05-04 17:43 | 33.69389 | -101.90850 | 37960 ft | 346 kts | 283° |
| 2026-05-04 17:43 | 33.70483 | -101.96475 | 37943 ft | 346 kts | 283° |
| 2026-05-04 17:44 | 33.71570 | -102.02096 | 37914 ft | 346 kts | 283° |
| 2026-05-04 17:44 | 33.72665 | -102.07718 | 37887 ft | 346 kts | 283° |
| 2026-05-04 17:45 | 33.73755 | -102.13350 | 37857 ft | 346 kts | 283° |
| 2026-05-04 17:45 | 33.74845 | -102.18979 | 37869 ft | 346 kts | 283° |
| 2026-05-04 17:46 | 33.75929 | -102.24611 | 37880 ft | 346 kts | 283° |
| 2026-05-04 17:46 | 33.77017 | -102.30281 | 37885 ft | 346 kts | 283° |
| 2026-05-04 17:47 | 33.78083 | -102.35883 | 37879 ft | 346 kts | 282° |
| 2026-05-04 17:47 | 33.79157 | -102.41519 | 37870 ft | 346 kts | 283° |
| 2026-05-04 17:48 | 33.80232 | -102.47154 | 37856 ft | 346 kts | 283° |
| 2026-05-04 17:48 | 33.81305 | -102.52793 | 37840 ft | 346 kts | 282° |
| 2026-05-04 17:49 | 33.82377 | -102.58437 | 37819 ft | 346 kts | 282° |
| 2026-05-04 17:49 | 33.83453 | -102.64119 | 37800 ft | 346 kts | 282° |
| 2026-05-04 17:50 | 33.84517 | -102.69769 | 37798 ft | 346 kts | 282° |
| 2026-05-04 17:50 | 33.85586 | -102.75449 | 37797 ft | 347 kts | 282° |
| 2026-05-04 17:51 | 33.86644 | -102.81096 | 37802 ft | 347 kts | 282° |
| 2026-05-04 17:51 | 33.87699 | -102.86750 | 37804 ft | 347 kts | 282° |
| 2026-05-04 17:52 | 33.88757 | -102.92431 | 37801 ft | 347 kts | 282° |
| 2026-05-04 17:52 | 33.89807 | -102.98103 | 37806 ft | 347 kts | 282° |
| 2026-05-04 17:53 | 33.90858 | -103.03782 | 37809 ft | 348 kts | 282° |
| 2026-05-04 17:53 | 33.91915 | -103.09459 | 37811 ft | 348 kts | 282° |
| 2026-05-04 17:54 | 33.92967 | -103.15141 | 37809 ft | 348 kts | 282° |
| 2026-05-04 17:54 | 33.94015 | -103.20829 | 37810 ft | 348 kts | 282° |
| 2026-05-04 17:55 | 33.94886 | -103.25563 | 37812 ft | 348 kts | 282° |
| 2026-05-04 17:55 | 33.95933 | -103.31259 | 37819 ft | 348 kts | 282° |
| 2026-05-04 17:56 | 33.96974 | -103.36953 | 37817 ft | 348 kts | 282° |
| 2026-05-04 17:56 | 33.98005 | -103.42663 | 37817 ft | 349 kts | 282° |
| 2026-05-04 17:57 | 33.99037 | -103.48372 | 37816 ft | 349 kts | 282° |
| 2026-05-04 17:57 | 34.00072 | -103.54085 | 37813 ft | 349 kts | 282° |
| 2026-05-04 17:58 | 34.01110 | -103.59802 | 37810 ft | 349 kts | 282° |
| 2026-05-04 17:58 | 34.02141 | -103.65534 | 37807 ft | 350 kts | 282° |
| 2026-05-04 17:59 | 34.03169 | -103.71265 | 37799 ft | 350 kts | 281° |
| 2026-05-04 18:00 | 34.04706 | -103.79876 | 37789 ft | 350 kts | 281° |
| 2026-05-04 18:00 | 34.05734 | -103.85621 | 37777 ft | 351 kts | 281° |
| 2026-05-04 18:01 | 34.06760 | -103.91378 | 37772 ft | 351 kts | 281° |
| 2026-05-04 18:01 | 34.07781 | -103.97130 | 37763 ft | 351 kts | 281° |
| 2026-05-04 18:02 | 34.09304 | -104.05769 | 37758 ft | 351 kts | 281° |
| 2026-05-04 18:02 | 34.10319 | -104.11538 | 37767 ft | 351 kts | 281° |
| 2026-05-04 18:03 | 34.11332 | -104.17302 | 37757 ft | 351 kts | 281° |
| 2026-05-04 18:03 | 34.12342 | -104.23073 | 37763 ft | 351 kts | 281° |
| 2026-05-04 18:04 | 34.13349 | -104.28843 | 37767 ft | 352 kts | 281° |
| 2026-05-04 18:05 | 34.14855 | -104.37515 | 37771 ft | 352 kts | 281° |
| 2026-05-04 18:05 | 34.15861 | -104.43302 | 37773 ft | 352 kts | 281° |
| 2026-05-04 18:06 | 34.17356 | -104.51990 | 37776 ft | 352 kts | 281° |
| 2026-05-04 18:06 | 34.18355 | -104.57783 | 37786 ft | 352 kts | 281° |
| 2026-05-04 18:07 | 34.19347 | -104.63581 | 37792 ft | 352 kts | 280° |
| 2026-05-04 18:07 | 34.20336 | -104.69377 | 37795 ft | 352 kts | 280° |
| 2026-05-04 18:08 | 34.21314 | -104.75128 | 37798 ft | 352 kts | 280° |
| 2026-05-04 18:08 | 34.22303 | -104.80958 | 37800 ft | 352 kts | 280° |
| 2026-05-04 18:09 | 34.24264 | -104.92514 | 37810 ft | 352 kts | 280° |
| 2026-05-04 18:10 | 34.25240 | -104.98310 | 37815 ft | 352 kts | 280° |
| 2026-05-04 18:10 | 34.26211 | -105.04122 | 37822 ft | 353 kts | 280° |
| 2026-05-04 18:11 | 34.27182 | -105.09930 | 37826 ft | 353 kts | 280° |
| 2026-05-04 18:11 | 34.28156 | -105.15755 | 37831 ft | 353 kts | 280° |
| 2026-05-04 18:12 | 34.29124 | -105.21576 | 37838 ft | 354 kts | 279° |
| 2026-05-04 18:12 | 34.30092 | -105.27411 | 37834 ft | 354 kts | 279° |
| 2026-05-04 18:13 | 34.31059 | -105.33259 | 37843 ft | 354 kts | 279° |
| 2026-05-04 18:14 | 34.32500 | -105.42035 | 37863 ft | 355 kts | 279° |
| 2026-05-04 18:14 | 34.33467 | -105.47898 | 37877 ft | 355 kts | 279° |
| 2026-05-04 18:15 | 34.35386 | -105.59651 | 37899 ft | 355 kts | 279° |
| 2026-05-04 18:16 | 34.36337 | -105.65510 | 37907 ft | 355 kts | 279° |
| 2026-05-04 18:16 | 34.36819 | -105.71386 | 37912 ft | 353 kts | 272° |
| 2026-05-04 18:17 | 34.37074 | -105.80334 | 37924 ft | 353 kts | 272° |
| 2026-05-04 18:18 | 34.37339 | -105.89238 | 37926 ft | 352 kts | 272° |
| 2026-05-04 18:18 | 34.37510 | -105.95166 | 37929 ft | 352 kts | 272° |
| 2026-05-04 18:19 | 34.37761 | -106.04047 | 37929 ft | 352 kts | 272° |
| 2026-05-04 18:19 | 34.37924 | -106.09955 | 37921 ft | 351 kts | 271° |
| 2026-05-04 18:20 | 34.38081 | -106.15866 | 37925 ft | 351 kts | 271° |
| 2026-05-04 18:20 | 34.38233 | -106.21762 | 37932 ft | 351 kts | 271° |
| 2026-05-04 18:21 | 34.38388 | -106.27662 | 37933 ft | 350 kts | 271° |
| 2026-05-04 18:21 | 34.38536 | -106.33552 | 37933 ft | 350 kts | 271° |
| 2026-05-04 18:22 | 34.38684 | -106.39443 | 37929 ft | 350 kts | 271° |
| 2026-05-04 18:22 | 34.38830 | -106.45324 | 37923 ft | 349 kts | 271° |
| 2026-05-04 18:23 | 34.38977 | -106.51202 | 37917 ft | 349 kts | 271° |
| 2026-05-04 18:23 | 34.39118 | -106.57087 | 37905 ft | 349 kts | 271° |
| 2026-05-04 18:24 | 34.39248 | -106.62965 | 37897 ft | 349 kts | 271° |
| 2026-05-04 18:24 | 34.39377 | -106.68842 | 37887 ft | 349 kts | 271° |
| 2026-05-04 18:25 | 34.39508 | -106.74709 | 37885 ft | 349 kts | 271° |
| 2026-05-04 18:25 | 34.39630 | -106.80592 | 37876 ft | 349 kts | 271° |
| 2026-05-04 18:26 | 34.39752 | -106.86426 | 37870 ft | 349 kts | 271° |
| 2026-05-04 18:26 | 34.39873 | -106.92305 | 37864 ft | 349 kts | 271° |
| 2026-05-04 18:27 | 34.39997 | -106.98190 | 37864 ft | 349 kts | 271° |
| 2026-05-04 18:27 | 34.40116 | -107.04062 | 37862 ft | 349 kts | 271° |
| 2026-05-04 18:28 | 34.40232 | -107.09968 | 37860 ft | 348 kts | 270° |
| 2026-05-04 18:28 | 34.40333 | -107.15839 | 37859 ft | 348 kts | 270° |
| 2026-05-04 18:29 | 34.40441 | -107.21704 | 37847 ft | 348 kts | 270° |
| 2026-05-04 18:29 | 34.40552 | -107.27567 | 37846 ft | 348 kts | 270° |
| 2026-05-04 18:30 | 34.40697 | -107.36373 | 37839 ft | 349 kts | 270° |
| 2026-05-04 18:31 | 34.40796 | -107.42215 | 37841 ft | 349 kts | 270° |
| 2026-05-04 18:31 | 34.40892 | -107.48091 | 37842 ft | 349 kts | 270° |
| 2026-05-04 18:32 | 34.40985 | -107.53967 | 37844 ft | 349 kts | 270° |
| 2026-05-04 18:32 | 34.41071 | -107.59849 | 37844 ft | 349 kts | 270° |
| 2026-05-04 18:33 | 34.41158 | -107.65728 | 37839 ft | 349 kts | 270° |
| 2026-05-04 18:33 | 34.41235 | -107.70655 | 37834 ft | 350 kts | 270° |
| 2026-05-04 18:34 | 34.41319 | -107.76548 | 37835 ft | 350 kts | 270° |
| 2026-05-04 18:34 | 34.41394 | -107.82443 | 37840 ft | 350 kts | 269° |
| 2026-05-04 18:35 | 34.41467 | -107.88331 | 37836 ft | 350 kts | 269° |
| 2026-05-04 18:35 | 34.41536 | -107.94224 | 37829 ft | 350 kts | 269° |
| 2026-05-04 18:36 | 34.41604 | -108.00120 | 37831 ft | 350 kts | 269° |
| 2026-05-04 18:36 | 34.41675 | -108.05977 | 37832 ft | 350 kts | 269° |
| 2026-05-04 18:37 | 34.41738 | -108.11871 | 37839 ft | 350 kts | 269° |
| 2026-05-04 18:37 | 34.41799 | -108.17772 | 37836 ft | 350 kts | 269° |
| 2026-05-04 18:38 | 34.41856 | -108.23668 | 37837 ft | 350 kts | 269° |
| 2026-05-04 18:38 | 34.41913 | -108.29613 | 37843 ft | 351 kts | 269° |
| 2026-05-04 18:39 | 34.41967 | -108.35514 | 37839 ft | 351 kts | 269° |
| 2026-05-04 18:39 | 34.42014 | -108.41389 | 37844 ft | 351 kts | 269° |
| 2026-05-04 18:40 | 34.42061 | -108.47295 | 37853 ft | 351 kts | 269° |
| 2026-05-04 18:40 | 34.42106 | -108.53209 | 37856 ft | 351 kts | 269° |
| 2026-05-04 18:41 | 34.42151 | -108.59120 | 37856 ft | 351 kts | 269° |
| 2026-05-04 18:41 | 34.42190 | -108.65038 | 37858 ft | 351 kts | 268° |
| 2026-05-04 18:42 | 34.42219 | -108.70947 | 37868 ft | 351 kts | 268° |
| 2026-05-04 18:42 | 34.42252 | -108.76857 | 37871 ft | 351 kts | 268° |
| 2026-05-04 18:43 | 34.42287 | -108.82766 | 37873 ft | 351 kts | 268° |
| 2026-05-04 18:43 | 34.42316 | -108.88674 | 37871 ft | 351 kts | 268° |
| 2026-05-04 18:44 | 34.42345 | -108.94577 | 37878 ft | 351 kts | 268° |
| 2026-05-04 18:44 | 34.42367 | -109.00494 | 37911 ft | 351 kts | 268° |
| 2026-05-04 18:45 | 34.42383 | -109.06400 | 37950 ft | 351 kts | 268° |
| 2026-05-04 18:45 | 34.42398 | -109.12310 | 37989 ft | 351 kts | 268° |
| 2026-05-04 18:46 | 34.42342 | -109.18224 | 38027 ft | 350 kts | 266° |
| 2026-05-04 18:46 | 34.42107 | -109.24115 | 38055 ft | 350 kts | 265° |
| 2026-05-04 18:47 | 34.41848 | -109.30007 | 38078 ft | 350 kts | 265° |
| 2026-05-04 18:47 | 34.41619 | -109.35903 | 38092 ft | 350 kts | 265° |
| 2026-05-04 18:48 | 34.41399 | -109.41793 | 38084 ft | 350 kts | 265° |
| 2026-05-04 18:48 | 34.41177 | -109.47685 | 38068 ft | 350 kts | 265° |
| 2026-05-04 18:49 | 34.40953 | -109.53576 | 38044 ft | 350 kts | 265° |
| 2026-05-04 18:49 | 34.40721 | -109.59461 | 38013 ft | 350 kts | 265° |
| 2026-05-04 18:50 | 34.40487 | -109.65345 | 37982 ft | 350 kts | 265° |
| 2026-05-04 18:50 | 34.40253 | -109.71224 | 37977 ft | 350 kts | 265° |
| 2026-05-04 18:51 | 34.40017 | -109.77101 | 38018 ft | 349 kts | 265° |
| 2026-05-04 18:51 | 34.39781 | -109.82973 | 38052 ft | 349 kts | 265° |
| 2026-05-04 18:52 | 34.39541 | -109.88883 | 38082 ft | 349 kts | 265° |
| 2026-05-04 18:52 | 34.39294 | -109.94714 | 38103 ft | 349 kts | 265° |
| 2026-05-04 18:53 | 34.39046 | -110.00575 | 38100 ft | 349 kts | 265° |
| 2026-05-04 18:53 | 34.38800 | -110.06433 | 38115 ft | 349 kts | 265° |
| 2026-05-04 18:54 | 34.38551 | -110.12294 | 38112 ft | 348 kts | 265° |
| 2026-05-04 18:54 | 34.38292 | -110.18153 | 38109 ft | 348 kts | 265° |
| 2026-05-04 18:55 | 34.38030 | -110.24005 | 38089 ft | 348 kts | 264° |
| 2026-05-04 18:55 | 34.37637 | -110.32801 | 38050 ft | 348 kts | 264° |
| 2026-05-04 18:56 | 34.37372 | -110.38660 | 38020 ft | 349 kts | 264° |
| 2026-05-04 18:56 | 34.37102 | -110.44528 | 37990 ft | 349 kts | 264° |
| 2026-05-04 18:57 | 34.36831 | -110.50389 | 37971 ft | 349 kts | 264° |
| 2026-05-04 18:57 | 34.36558 | -110.56261 | 37959 ft | 349 kts | 264° |
| 2026-05-04 18:58 | 34.36288 | -110.62126 | 37964 ft | 349 kts | 264° |
| 2026-05-04 18:58 | 34.36004 | -110.67999 | 37967 ft | 349 kts | 264° |
| 2026-05-04 18:59 | 34.35718 | -110.73866 | 37967 ft | 350 kts | 264° |
| 2026-05-04 18:59 | 34.35424 | -110.79749 | 37974 ft | 350 kts | 264° |
| 2026-05-04 19:00 | 34.35141 | -110.85630 | 37982 ft | 350 kts | 264° |
| 2026-05-04 19:00 | 34.34855 | -110.91518 | 37985 ft | 350 kts | 264° |
| 2026-05-04 19:01 | 34.34556 | -110.97390 | 38015 ft | 350 kts | 263° |
| 2026-05-04 19:01 | 34.34255 | -111.03271 | 38028 ft | 349 kts | 263° |
| 2026-05-04 19:02 | 34.33957 | -111.09148 | 38058 ft | 350 kts | 263° |
| 2026-05-04 19:02 | 34.33657 | -111.15020 | 38086 ft | 350 kts | 263° |
| 2026-05-04 19:03 | 34.33354 | -111.20896 | 38101 ft | 350 kts | 263° |
| 2026-05-04 19:03 | 34.33041 | -111.26763 | 38121 ft | 349 kts | 263° |
| 2026-05-04 19:04 | 34.32728 | -111.32620 | 38131 ft | 349 kts | 263° |
| 2026-05-04 19:04 | 34.32419 | -111.38477 | 38131 ft | 349 kts | 263° |
| 2026-05-04 19:05 | 34.32107 | -111.44326 | 38121 ft | 348 kts | 262° |
| 2026-05-04 19:05 | 34.31785 | -111.50172 | 38097 ft | 348 kts | 262° |
| 2026-05-04 19:06 | 34.31461 | -111.56013 | 38068 ft | 348 kts | 262° |
| 2026-05-04 19:06 | 34.31137 | -111.61851 | 38042 ft | 348 kts | 262° |
| 2026-05-04 19:07 | 34.30810 | -111.67689 | 38011 ft | 348 kts | 262° |
| 2026-05-04 19:07 | 34.30484 | -111.73530 | 37977 ft | 348 kts | 262° |
| 2026-05-04 19:08 | 34.30151 | -111.79392 | 37947 ft | 349 kts | 262° |
| 2026-05-04 19:08 | 34.29820 | -111.85233 | 37940 ft | 348 kts | 262° |
| 2026-05-04 19:09 | 34.29481 | -111.91066 | 37933 ft | 348 kts | 262° |
| 2026-05-04 19:09 | 34.29142 | -111.96910 | 37930 ft | 348 kts | 262° |
| 2026-05-04 19:10 | 34.28797 | -112.02749 | 37933 ft | 348 kts | 262° |
| 2026-05-04 19:10 | 34.28453 | -112.08594 | 37922 ft | 349 kts | 262° |
| 2026-05-04 19:11 | 34.28091 | -112.14434 | 37922 ft | 348 kts | 262° |
| 2026-05-04 19:11 | 34.27793 | -112.19297 | 37917 ft | 349 kts | 262° |
| 2026-05-04 19:12 | 34.27265 | -112.28073 | 37917 ft | 348 kts | 262° |
| 2026-05-04 19:13 | 34.26903 | -112.33910 | 37917 ft | 348 kts | 261° |
| 2026-05-04 19:13 | 34.26538 | -112.39756 | 37918 ft | 349 kts | 261° |
| 2026-05-04 19:14 | 34.26175 | -112.45601 | 37918 ft | 349 kts | 261° |
| 2026-05-04 19:14 | 34.25810 | -112.51445 | 37915 ft | 349 kts | 261° |
| 2026-05-04 19:15 | 34.25437 | -112.57308 | 37914 ft | 349 kts | 261° |
| 2026-05-04 19:15 | 34.24998 | -112.64107 | 37912 ft | 349 kts | 261° |
| 2026-05-04 19:16 | 34.24685 | -112.68972 | 37917 ft | 349 kts | 261° |
| 2026-05-04 19:16 | 34.24317 | -112.74605 | 37922 ft | 349 kts | 261° |
| 2026-05-04 19:17 | 34.23936 | -112.80464 | 37916 ft | 349 kts | 261° |
| 2026-05-04 19:18 | 34.23110 | -112.92984 | 37911 ft | 348 kts | 260° |
| 2026-05-04 19:18 | 34.22784 | -112.97842 | 37904 ft | 349 kts | 260° |
| 2026-05-04 19:19 | 34.22388 | -113.03713 | 37899 ft | 349 kts | 260° |
| 2026-05-04 19:19 | 34.21996 | -113.09542 | 37905 ft | 349 kts | 260° |
| 2026-05-04 19:20 | 34.21598 | -113.15369 | 37899 ft | 349 kts | 260° |
| 2026-05-04 19:20 | 34.21198 | -113.21197 | 37899 ft | 349 kts | 260° |
| 2026-05-04 19:21 | 34.20790 | -113.27049 | 37895 ft | 349 kts | 259° |
| 2026-05-04 19:21 | 34.20380 | -113.32875 | 37894 ft | 349 kts | 259° |
| 2026-05-04 19:22 | 34.19969 | -113.38710 | 37890 ft | 349 kts | 259° |
| 2026-05-04 19:22 | 34.19573 | -113.44361 | 37893 ft | 349 kts | 259° |
| 2026-05-04 19:23 | 34.19164 | -113.50207 | 37890 ft | 349 kts | 259° |
| 2026-05-04 19:23 | 34.18749 | -113.56073 | 37888 ft | 349 kts | 259° |
| 2026-05-04 19:24 | 34.18323 | -113.61904 | 37890 ft | 349 kts | 259° |
| 2026-05-04 19:24 | 34.17894 | -113.67761 | 37898 ft | 350 kts | 259° |
| 2026-05-04 19:25 | 34.17472 | -113.73623 | 37900 ft | 350 kts | 259° |
| 2026-05-04 19:25 | 34.17044 | -113.79479 | 37904 ft | 350 kts | 259° |
| 2026-05-04 19:26 | 34.16612 | -113.85311 | 37907 ft | 350 kts | 259° |
| 2026-05-04 19:26 | 34.16174 | -113.91170 | 37582 ft | 350 kts | 259° |
| 2026-05-04 19:26 | 34.15957 | -113.94091 | 37068 ft | 348 kts | 259° |
| 2026-05-04 19:27 | 34.15740 | -113.96990 | 36512 ft | 344 kts | 259° |
| 2026-05-04 19:27 | 34.15521 | -113.99869 | 36253 ft | 346 kts | 259° |
| 2026-05-04 19:27 | 34.15299 | -114.02740 | 36009 ft | 349 kts | 259° |
| 2026-05-04 19:27 | 34.15073 | -114.05679 | 35767 ft | 351 kts | 259° |
| 2026-05-04 19:28 | 34.14849 | -114.08612 | 35522 ft | 352 kts | 259° |
| 2026-05-04 19:28 | 34.14628 | -114.11556 | 35304 ft | 353 kts | 259° |
| 2026-05-04 19:28 | 34.14411 | -114.14511 | 35090 ft | 353 kts | 259° |
| 2026-05-04 19:28 | 34.14191 | -114.17466 | 34879 ft | 354 kts | 259° |
| 2026-05-04 19:29 | 34.13969 | -114.20426 | 34667 ft | 354 kts | 258° |
| 2026-05-04 19:29 | 34.13743 | -114.23384 | 34458 ft | 354 kts | 258° |
| 2026-05-04 19:29 | 34.13516 | -114.26345 | 34250 ft | 355 kts | 258° |
| 2026-05-04 19:29 | 34.13286 | -114.29309 | 34043 ft | 355 kts | 258° |
| 2026-05-04 19:30 | 34.13055 | -114.32279 | 33832 ft | 356 kts | 258° |
| 2026-05-04 19:30 | 34.12821 | -114.35258 | 33590 ft | 357 kts | 258° |
| 2026-05-04 19:30 | 34.12585 | -114.38249 | 33358 ft | 358 kts | 258° |
| 2026-05-04 19:30 | 34.12351 | -114.41254 | 33132 ft | 360 kts | 258° |
| 2026-05-04 19:31 | 34.12117 | -114.44278 | 32900 ft | 362 kts | 258° |
| 2026-05-04 19:31 | 34.11881 | -114.47310 | 32678 ft | 364 kts | 258° |
| 2026-05-04 19:31 | 34.11641 | -114.50363 | 32446 ft | 366 kts | 258° |
| 2026-05-04 19:31 | 34.11396 | -114.53429 | 32218 ft | 368 kts | 258° |
| 2026-05-04 19:32 | 34.11147 | -114.56512 | 32005 ft | 370 kts | 258° |
| 2026-05-04 19:32 | 34.10896 | -114.59612 | 31781 ft | 372 kts | 258° |
| 2026-05-04 19:32 | 34.10643 | -114.62728 | 31568 ft | 374 kts | 258° |
| 2026-05-04 19:32 | 34.10388 | -114.65857 | 31350 ft | 376 kts | 258° |
| 2026-05-04 19:33 | 34.10208 | -114.69029 | 31137 ft | 382 kts | 262° |
| 2026-05-04 19:33 | 34.10248 | -114.72247 | 30926 ft | 386 kts | 263° |
| 2026-05-04 19:33 | 34.10296 | -114.75496 | 30714 ft | 388 kts | 263° |
| 2026-05-04 19:33 | 34.10341 | -114.78762 | 30509 ft | 390 kts | 263° |
| 2026-05-04 19:34 | 34.10383 | -114.82043 | 30301 ft | 392 kts | 263° |
| 2026-05-04 19:34 | 34.10421 | -114.85341 | 30097 ft | 394 kts | 263° |
| 2026-05-04 19:34 | 34.10458 | -114.88667 | 29875 ft | 396 kts | 263° |
| 2026-05-04 19:34 | 34.10496 | -114.91995 | 29650 ft | 398 kts | 263° |
| 2026-05-04 19:35 | 34.10537 | -114.95335 | 29392 ft | 399 kts | 263° |
| 2026-05-04 19:35 | 34.10579 | -114.98684 | 29157 ft | 400 kts | 263° |
| 2026-05-04 19:35 | 34.10621 | -115.02039 | 28915 ft | 400 kts | 263° |
| 2026-05-04 19:35 | 34.10661 | -115.05399 | 28683 ft | 401 kts | 263° |
| 2026-05-04 19:36 | 34.10696 | -115.08771 | 28449 ft | 402 kts | 263° |
| 2026-05-04 19:36 | 34.10728 | -115.12148 | 28219 ft | 402 kts | 263° |
| 2026-05-04 19:36 | 34.10759 | -115.15523 | 27990 ft | 403 kts | 263° |
| 2026-05-04 19:36 | 34.10790 | -115.18909 | 27760 ft | 404 kts | 263° |
| 2026-05-04 19:37 | 34.10822 | -115.22291 | 27537 ft | 404 kts | 264° |
| 2026-05-04 19:37 | 34.10854 | -115.25688 | 27310 ft | 405 kts | 264° |
| 2026-05-04 19:37 | 34.10884 | -115.29091 | 27087 ft | 406 kts | 264° |
| 2026-05-04 19:37 | 34.10914 | -115.32491 | 26867 ft | 406 kts | 264° |
| 2026-05-04 19:38 | 34.10942 | -115.35909 | 26648 ft | 407 kts | 264° |
| 2026-05-04 19:38 | 34.10970 | -115.39324 | 26430 ft | 409 kts | 264° |
| 2026-05-04 19:38 | 34.10995 | -115.42760 | 26215 ft | 409 kts | 264° |
| 2026-05-04 19:38 | 34.11021 | -115.46191 | 26005 ft | 409 kts | 264° |
| 2026-05-04 19:39 | 34.11048 | -115.49634 | 25790 ft | 410 kts | 264° |
| 2026-05-04 19:39 | 34.11075 | -115.53077 | 25579 ft | 410 kts | 264° |
| 2026-05-04 19:39 | 34.11100 | -115.56517 | 25370 ft | 411 kts | 264° |
| 2026-05-04 19:39 | 34.11123 | -115.59966 | 25164 ft | 412 kts | 264° |
| 2026-05-04 19:40 | 34.11146 | -115.63424 | 24952 ft | 412 kts | 264° |
| 2026-05-04 19:40 | 34.11170 | -115.66881 | 24756 ft | 411 kts | 265° |
| 2026-05-04 19:40 | 34.11191 | -115.70284 | 24554 ft | 410 kts | 265° |
| 2026-05-04 19:40 | 34.11209 | -115.73717 | 24353 ft | 409 kts | 265° |
| 2026-05-04 19:41 | 34.11268 | -115.77143 | 24172 ft | 410 kts | 268° |
| 2026-05-04 19:41 | 34.11590 | -115.80584 | 24045 ft | 412 kts | 271° |
| 2026-05-04 19:41 | 34.11942 | -115.84017 | 23913 ft | 411 kts | 271° |
| 2026-05-04 19:41 | 34.12291 | -115.87457 | 23782 ft | 410 kts | 271° |
| 2026-05-04 19:42 | 34.12637 | -115.90880 | 23653 ft | 409 kts | 271° |
| 2026-05-04 19:42 | 34.12978 | -115.94280 | 23523 ft | 408 kts | 271° |
| 2026-05-04 19:42 | 34.13323 | -115.97684 | 23370 ft | 408 kts | 272° |
| 2026-05-04 19:42 | 34.14073 | -116.00983 | 23211 ft | 420 kts | 284° |
| 2026-05-04 19:43 | 34.15234 | -116.04242 | 23062 ft | 421 kts | 285° |
| 2026-05-04 19:43 | 34.16417 | -116.07496 | 22906 ft | 420 kts | 286° |
| 2026-05-04 19:43 | 34.17595 | -116.10714 | 22747 ft | 420 kts | 286° |
| 2026-05-04 19:43 | 34.18768 | -116.13917 | 22589 ft | 419 kts | 286° |
| 2026-05-04 19:44 | 34.19163 | -116.14998 | 22539 ft | 419 kts | 286° |
| 2026-05-04 19:44 | 34.22120 | -116.23136 | 21885 ft | 417 kts | 286° |
| 2026-05-04 19:44 | 34.22818 | -116.25066 | 21683 ft | 414 kts | 286° |
| 2026-05-04 19:45 | 34.24005 | -116.28349 | 21351 ft | 414 kts | 286° |
| 2026-05-04 19:45 | 34.25152 | -116.31533 | 21024 ft | 413 kts | 286° |
| 2026-05-04 19:45 | 34.26295 | -116.34715 | 20617 ft | 412 kts | 287° |
| 2026-05-04 19:45 | 34.27429 | -116.37873 | 20205 ft | 411 kts | 287° |
| 2026-05-04 19:46 | 34.28571 | -116.41055 | 19797 ft | 409 kts | 287° |
| 2026-05-04 19:46 | 34.29703 | -116.44203 | 19400 ft | 408 kts | 287° |
| 2026-05-04 19:46 | 34.30837 | -116.47348 | 18993 ft | 407 kts | 287° |
| 2026-05-04 19:46 | 34.31965 | -116.50485 | 18598 ft | 405 kts | 288° |
| 2026-05-04 19:47 | 34.33088 | -116.53610 | 18209 ft | 404 kts | 288° |
| 2026-05-04 19:47 | 34.34203 | -116.56722 | 17759 ft | 403 kts | 288° |
| 2026-05-04 19:47 | 34.35313 | -116.59827 | 17318 ft | 402 kts | 288° |
| 2026-05-04 19:47 | 34.36423 | -116.62938 | 16855 ft | 400 kts | 288° |
| 2026-05-04 19:48 | 34.37531 | -116.66038 | 16399 ft | 398 kts | 288° |
| 2026-05-04 19:48 | 34.38608 | -116.69052 | 15965 ft | 397 kts | 289° |
| 2026-05-04 19:48 | 34.39699 | -116.72111 | 15474 ft | 395 kts | 289° |
| 2026-05-04 19:48 | 34.40784 | -116.75160 | 14974 ft | 394 kts | 289° |
| 2026-05-04 19:49 | 34.41865 | -116.78208 | 14452 ft | 393 kts | 289° |
| 2026-05-04 19:49 | 34.42942 | -116.81247 | 13944 ft | 391 kts | 289° |
| 2026-05-04 19:49 | 34.44013 | -116.84267 | 13350 ft | 390 kts | 290° |
| 2026-05-04 19:49 | 34.45079 | -116.87262 | 12683 ft | 388 kts | 290° |
| 2026-05-04 19:50 | 34.46139 | -116.90235 | 12012 ft | 384 kts | 290° |
| 2026-05-04 19:50 | 34.47195 | -116.93210 | 11369 ft | 383 kts | 290° |
| 2026-05-04 19:50 | 34.48238 | -116.96162 | 10741 ft | 382 kts | 290° |
| 2026-05-04 19:50 | 34.49278 | -116.99118 | 10122 ft | 380 kts | 290° |
| 2026-05-04 19:51 | 34.50303 | -117.02024 | 9431 ft | 361 kts | 291° |
| 2026-05-04 19:51 | 34.51257 | -117.04705 | 8675 ft | 334 kts | 290° |
| 2026-05-04 19:51 | 34.52144 | -117.07200 | 8124 ft | 309 kts | 289° |
| 2026-05-04 19:51 | 34.53115 | -117.09382 | 7990 ft | 285 kts | 300° |
| 2026-05-04 19:52 | 34.54309 | -117.11257 | 7836 ft | 278 kts | 308° |
| 2026-05-04 19:52 | 34.55713 | -117.12854 | 7506 ft | 277 kts | 317° |
| 2026-05-04 19:52 | 34.57318 | -117.14158 | 7180 ft | 279 kts | 326° |
| 2026-05-04 19:52 | 34.59087 | -117.15133 | 6895 ft | 280 kts | 335° |
| 2026-05-04 19:53 | 34.60964 | -117.15748 | 6691 ft | 280 kts | 346° |
| 2026-05-04 19:53 | 34.62882 | -117.16038 | 6664 ft | 283 kts | 349° |
| 2026-05-04 19:53 | 34.64852 | -117.16302 | 6672 ft | 285 kts | 349° |
| 2026-05-04 19:53 | 34.66813 | -117.16568 | 6670 ft | 284 kts | 349° |
| 2026-05-04 19:54 | 34.68768 | -117.16836 | 6667 ft | 282 kts | 349° |
| 2026-05-04 19:54 | 34.69609 | -117.16953 | 6663 ft | 282 kts | 349° |
| 2026-05-04 19:54 | 34.70361 | -117.17058 | 6559 ft | 297 kts | 348° |
| 2026-05-04 19:54 | 34.72376 | -117.17341 | 6623 ft | 284 kts | 349° |
| 2026-05-04 19:55 | 34.74326 | -117.17603 | 6339 ft | 279 kts | 349° |
| 2026-05-04 19:55 | 34.76152 | -117.18125 | 6143 ft | 263 kts | 331° |
| 2026-05-04 19:55 | 34.77657 | -117.19299 | 5815 ft | 253 kts | 312° |
| 2026-05-04 19:55 | 34.78710 | -117.20922 | 5449 ft | 245 kts | 294° |
| 2026-05-04 19:56 | 34.79288 | -117.22843 | 5058 ft | 240 kts | 278° |
| 2026-05-04 19:56 | 34.79371 | -117.24851 | 4691 ft | 237 kts | 266° |
| 2026-05-04 19:56 | 34.79325 | -117.26843 | 4448 ft | 236 kts | 266° |
| 2026-05-04 19:56 | 34.79281 | -117.28894 | 4458 ft | 247 kts | 267° |
| 2026-05-04 19:57 | 34.79239 | -117.30981 | 4453 ft | 248 kts | 266° |
| 2026-05-04 19:57 | 34.79199 | -117.33079 | 4457 ft | 243 kts | 266° |
| 2026-05-04 19:57 | 34.79164 | -117.35066 | 4459 ft | 229 kts | 267° |
| 2026-05-04 19:57 | 34.78972 | -117.36954 | 4452 ft | 221 kts | 249° |
| 2026-05-04 19:58 | 34.78041 | -117.38365 | 4358 ft | 217 kts | 214° |
| 2026-05-04 19:58 | 34.76569 | -117.38834 | 4270 ft | 225 kts | 182° |
| 2026-05-04 19:58 | 34.74989 | -117.38733 | 4275 ft | 228 kts | 183° |
| 2026-05-04 19:58 | 34.73406 | -117.38707 | 4279 ft | 227 kts | 184° |
| 2026-05-04 19:59 | 34.72359 | -117.38707 | 4287 ft | 227 kts | 184° |
| 2026-05-04 19:59 | 34.70777 | -117.38711 | 4293 ft | 227 kts | 184° |
| 2026-05-04 19:59 | 34.69215 | -117.38709 | 4296 ft | 218 kts | 182° |
| 2026-05-04 19:59 | 34.67727 | -117.38701 | 4260 ft | 214 kts | 182° |
| 2026-05-04 20:00 | 34.66229 | -117.38692 | 3893 ft | 215 kts | 182° |
| 2026-05-04 20:00 | 34.64748 | -117.38680 | 3533 ft | 208 kts | 180° |
| 2026-05-04 20:00 | 34.62887 | -117.38664 | 3170 ft | 194 kts | 178° |
| 2026-05-04 20:00 | 34.61997 | -117.38676 | 2980 ft | 192 kts | 178° |
| 2026-05-04 20:01 | 34.61289 | -117.38672 | 2915 ft | 186 kts | 177° |
| 2026-05-04 20:02 | 34.60706 | -117.38659 | 2912 ft | 181 kts | 177° |
| 2026-05-04 20:02 | 34.59945 | -117.38610 | 2922 ft | 178 kts | 168° |
| 2026-05-04 20:03 | 34.59256 | -117.38340 | 2982 ft | 173 kts | 157° |
| 2026-05-04 20:03 | 34.58066 | -117.37727 | 3275 ft | 207 kts | 172° |
| 2026-05-04 20:03 | 34.56518 | -117.37518 | 4259 ft | 240 kts | 181° |
| 2026-05-04 20:03 | 34.54768 | -117.37452 | 4330 ft | 258 kts | 176° |
| 2026-05-04 20:04 | 34.53055 | -117.37407 | 4309 ft | 238 kts | 193° |
| 2026-05-04 20:04 | 34.51647 | -117.38278 | 4308 ft | 220 kts | 223° |
| 2026-05-04 20:04 | 34.50830 | -117.39847 | 4308 ft | 226 kts | 244° |
| 2026-05-04 20:04 | 34.50247 | -117.41647 | 4306 ft | 231 kts | 246° |
| 2026-05-04 20:05 | 34.49949 | -117.43554 | 4306 ft | 234 kts | 269° |
| 2026-05-04 20:05 | 34.50357 | -117.45487 | 4309 ft | 240 kts | 290° |
| 2026-05-04 20:05 | 34.51409 | -117.47060 | 4304 ft | 247 kts | 322° |
| 2026-05-04 20:05 | 34.52994 | -117.47901 | 4303 ft | 252 kts | 341° |
| 2026-05-04 20:06 | 34.54757 | -117.48114 | 4314 ft | 256 kts | 358° |
| 2026-05-04 20:06 | 34.56507 | -117.47977 | 4303 ft | 246 kts | 8° |
| 2026-05-04 20:06 | 34.58083 | -117.47348 | 4310 ft | 233 kts | 19° |
| 2026-05-04 20:06 | 34.59567 | -117.46604 | 4305 ft | 223 kts | 20° |
| 2026-05-04 20:07 | 34.60956 | -117.45901 | 4313 ft | 209 kts | 17° |
| 2026-05-04 20:07 | 34.62319 | -117.45310 | 4326 ft | 208 kts | 15° |
| 2026-05-04 20:07 | 34.63667 | -117.44737 | 4305 ft | 199 kts | 17° |
| 2026-05-04 20:07 | 34.64884 | -117.44219 | 4305 ft | 173 kts | 14° |
| 2026-05-04 20:08 | 34.65991 | -117.43830 | 4305 ft | 163 kts | 7° |
| 2026-05-04 20:08 | 34.67108 | -117.43753 | 4309 ft | 160 kts | 353° |
| 2026-05-04 20:08 | 34.68208 | -117.43633 | 4294 ft | 161 kts | 17° |
| 2026-05-04 20:08 | 34.69122 | -117.42814 | 4304 ft | 169 kts | 55° |
| 2026-05-04 20:09 | 34.69417 | -117.41480 | 4307 ft | 163 kts | 102° |
| 2026-05-04 20:09 | 34.69014 | -117.40233 | 4249 ft | 157 kts | 135° |
| 2026-05-04 20:09 | 34.68218 | -117.39390 | 4139 ft | 151 kts | 154° |
| 2026-05-04 20:09 | 34.67261 | -117.38902 | 3902 ft | 148 kts | 171° |
| 2026-05-04 20:10 | 34.66271 | -117.38690 | 3648 ft | 140 kts | 180° |
| 2026-05-04 20:10 | 34.65322 | -117.38675 | 3450 ft | 140 kts | 177° |
| 2026-05-04 20:10 | 34.64356 | -117.38697 | 3319 ft | 139 kts | 181° |
| 2026-05-04 20:10 | 34.63392 | -117.38686 | 3144 ft | 137 kts | 174° |
| 2026-05-04 20:11 | 34.62436 | -117.38689 | 2951 ft | 137 kts | 177° |
| 2026-05-04 20:11 | 34.61491 | -117.38671 | 2869 ft | 128 kts | 184° |
| 2026-05-04 20:11 | 34.60764 | -117.38662 | 2864 ft | 80 kts | 178° |
| 2026-05-04 20:11 | 34.60314 | -117.38656 | 2855 ft | 57 kts | 181° |
| 2026-05-04 20:12 | 34.59941 | -117.38660 | 2866 ft | 48 kts | 181° |
| 2026-05-04 20:12 | 34.59618 | -117.38653 | 2870 ft | 46 kts | 179° |
| 2026-05-04 20:12 | 34.59486 | -117.38562 | 2868 ft | 23 kts | 93° |
| 2026-05-04 20:12 | 34.59476 | -117.38359 | 2868 ft | 24 kts | 112° |
| 2026-05-04 20:13 | 34.59353 | -117.38230 | 2866 ft | 19 kts | 129° |
| 2026-05-04 20:13 | 34.59284 | -117.38153 | 2868 ft | 20 kts | 137° |
| 2026-05-04 20:13 | 34.59270 | -117.38138 | 2868 ft | 20 kts | 137° |
| 2026-05-04 20:13 | 34.59163 | -117.38007 | 2868 ft | 23 kts | 136° |
| 2026-05-04 20:14 | 34.59047 | -117.37864 | 2871 ft | 23 kts | 134° |
| 2026-05-04 20:14 | 34.58958 | -117.37750 | 2871 ft | 18 kts | 136° |
| 2026-05-04 20:14 | 34.58870 | -117.37780 | 2871 ft | 16 kts | 225° |
| 2026-05-04 20:14 | 34.58779 | -117.37887 | 2872 ft | 20 kts | 225° |
| 2026-05-04 20:15 | 34.58668 | -117.38021 | 2869 ft | 26 kts | 224° |
| 2026-05-04 20:15 | 34.58573 | -117.38133 | 2869 ft | 7 kts | 216° |
| 2026-05-04 20:15 | 34.58545 | -117.38118 | 2870 ft | 5 kts | 143° |
| 2026-05-04 20:15 | 34.58513 | -117.38083 | 2872 ft | 7 kts | 137° |
| 2026-05-04 20:16 | 34.58469 | -117.38031 | 2873 ft | 10 kts | 138° |
| 2026-05-04 20:16 | 34.58412 | -117.38048 | 2873 ft | 0 kts | 231° |
| 2026-05-04 20:16 | 34.58402 | -117.38060 | 2873 ft | 0 kts | 226° |